createdAt,value
2019-03-26T00:00:04.410Z,30
2019-03-26T00:15:05.105Z,30
2019-03-26T00:30:04.667Z,30
2019-03-26T00:45:04.430Z,29
2019-03-26T01:00:05.100Z,29
2019-03-26T01:15:04.448Z,29
2019-03-26T01:30:04.980Z,28
2019-03-26T01:45:04.677Z,29
2019-03-26T02:00:04.438Z,29
2019-03-26T02:15:04.811Z,29
2019-03-26T02:30:04.800Z,29
2019-03-26T02:45:04.491Z,29
2019-03-26T03:00:04.259Z,29
2019-03-26T03:15:04.517Z,29
2019-03-26T03:30:05.134Z,29
2019-03-26T03:45:04.932Z,29
2019-03-26T04:00:04.385Z,30
2019-03-26T04:15:04.152Z,29
2019-03-26T04:30:04.603Z,29
2019-03-26T04:45:04.334Z,30
2019-03-26T05:00:05.133Z,29
2019-03-26T05:15:04.385Z,30
2019-03-26T05:30:05.002Z,29
2019-03-26T05:45:04.259Z,31
2019-03-26T06:00:04.585Z,30
2019-03-26T06:15:04.877Z,30
2019-03-26T06:30:04.238Z,29
2019-03-26T06:45:04.951Z,31
2019-03-26T07:00:07.573Z,30
2019-03-26T07:15:04.308Z,30
2019-03-26T07:30:04.765Z,30
2019-03-26T07:45:05.005Z,29
2019-03-26T08:00:04.825Z,30
2019-03-26T08:15:04.237Z,31
2019-03-26T08:30:04.554Z,29
2019-03-26T08:45:04.305Z,29
2019-03-26T09:00:05.055Z,28
2019-03-26T09:15:04.376Z,30
2019-03-26T09:30:04.843Z,29
2019-03-26T09:45:05.086Z,29
2019-03-26T10:00:04.358Z,28
2019-03-26T10:15:04.549Z,28
2019-03-26T10:30:06.068Z,28
2019-03-26T10:45:04.403Z,29
2019-03-26T11:00:04.739Z,29
2019-03-26T11:15:04.613Z,28
2019-03-26T11:30:04.555Z,28
2019-03-26T11:45:04.297Z,29
2019-03-26T12:00:04.549Z,29
2019-03-26T12:15:04.767Z,29
2019-03-26T12:30:04.719Z,29
2019-03-26T12:45:07.594Z,29
2019-03-26T13:00:04.400Z,29
2019-03-26T13:15:04.242Z,28
2019-03-26T13:30:04.335Z,29
2019-03-26T13:45:04.618Z,28
2019-03-26T14:00:04.374Z,28
2019-03-26T14:15:04.832Z,29
2019-03-26T14:30:04.948Z,29
2019-03-26T14:45:04.699Z,29
2019-03-26T15:00:04.493Z,29
2019-03-26T15:15:04.929Z,29
2019-03-26T15:30:04.455Z,29
2019-03-26T15:45:04.777Z,29
2019-03-26T16:00:04.597Z,31
2019-03-26T16:15:04.870Z,31
2019-03-26T16:30:04.784Z,31
2019-03-26T16:45:04.470Z,31
2019-03-26T17:00:05.450Z,30
2019-03-26T17:15:04.213Z,30
2019-03-26T17:30:04.461Z,32
2019-03-26T17:45:04.782Z,33
2019-03-26T18:00:05.034Z,33
2019-03-26T18:15:04.816Z,34
2019-03-26T18:30:04.369Z,34
2019-03-26T18:45:04.876Z,33
2019-03-26T19:00:04.300Z,34
2019-03-26T19:15:04.707Z,36
2019-03-26T19:30:04.191Z,35
2019-03-26T19:45:04.934Z,33
2019-03-26T20:00:04.716Z,34
2019-03-26T20:15:04.952Z,31
2019-03-26T20:30:04.929Z,32
2019-03-26T20:45:04.647Z,32
2019-03-26T21:00:05.062Z,38
2019-03-26T21:15:04.486Z,32
2019-03-26T21:30:16.243Z,31
2019-03-26T21:45:04.610Z,31
2019-03-26T22:00:04.947Z,30
2019-03-26T22:15:04.230Z,31
2019-03-26T22:30:04.164Z,31
2019-03-26T22:45:04.498Z,31
2019-03-26T23:00:04.744Z,31
2019-03-26T23:15:05.088Z,30
2019-03-26T23:30:04.533Z,31
2019-03-26T23:45:04.292Z,29
